createdAt,value
2017-11-06T00:00:35.921Z,7.1
2017-11-06T00:01:35.173Z,7.1
2017-11-06T00:02:34.183Z,7.1
2017-11-06T00:03:33.457Z,7.1
2017-11-06T00:04:32.480Z,7.1
2017-11-06T00:05:31.883Z,7.1
2017-11-06T00:06:30.765Z,7.1
2017-11-06T00:07:29.911Z,7.2
2017-11-06T00:08:29.064Z,7.1
2017-11-06T00:08:59.662Z,7.1
2017-11-06T00:09:30.126Z,7.1
2017-11-06T00:10:00.722Z,7.1
2017-11-06T00:11:26.206Z,7.1
2017-11-06T00:12:25.224Z,7.1
2017-11-06T00:13:24.380Z,7.1
2017-11-06T00:14:23.394Z,7.1
2017-11-06T00:15:22.553Z,7.1
2017-11-06T00:16:21.427Z,7.1
2017-11-06T00:17:20.443Z,7.1
2017-11-06T00:18:20.231Z,7.1
2017-11-06T00:19:18.613Z,7.1
2017-11-06T00:19:49.450Z,7.1
2017-11-06T00:20:19.776Z,7.1
2017-11-06T00:20:50.499Z,7.1
2017-11-06T00:22:16.458Z,7.1
2017-11-06T00:23:15.104Z,7.1
2017-11-06T00:24:14.386Z,7.1
2017-11-06T00:25:13.402Z,7.1
2017-11-06T00:26:12.547Z,7.1
2017-11-06T00:27:11.825Z,7.1
2017-11-06T00:28:10.890Z,7.1
2017-11-06T00:29:09.676Z,7.1
2017-11-06T00:30:08.957Z,7.1
2017-11-06T00:31:08.231Z,7.1
2017-11-06T00:32:06.619Z,7.1
2017-11-06T00:33:06.034Z,7.1
2017-11-06T00:34:05.460Z,7.1
2017-11-06T00:35:03.845Z,7.1
2017-11-06T00:36:03.489Z,7.1
2017-11-06T00:37:01.873Z,7.1
2017-11-06T00:38:01.937Z,7
2017-11-06T00:39:00.465Z,7
2017-11-06T00:39:59.603Z,7
2017-11-06T00:40:58.885Z,7
2017-11-06T00:41:57.394Z,7
2017-11-06T00:42:56.780Z,7
2017-11-06T00:43:55.926Z,7
2017-11-06T00:44:55.069Z,7
2017-11-06T00:45:54.360Z,7
2017-11-06T00:46:53.371Z,7
2017-11-06T00:47:52.534Z,7
2017-11-06T00:48:51.673Z,7
2017-11-06T00:49:50.322Z,7
2017-11-06T00:50:20.910Z,7
2017-11-06T00:50:51.501Z,7
2017-11-06T00:51:21.972Z,7
2017-11-06T00:52:47.526Z,7
2017-11-06T00:53:46.678Z,7
2017-11-06T00:54:45.953Z,7
2017-11-06T00:55:44.974Z,7
2017-11-06T00:56:44.263Z,7
2017-11-06T00:57:43.543Z,7
2017-11-06T00:58:42.362Z,7
2017-11-06T00:59:41.383Z,7
2017-11-06T01:00:40.666Z,7
2017-11-06T01:01:11.132Z,7
2017-11-06T01:02:38.596Z,7
2017-11-06T01:03:37.343Z,7
2017-11-06T01:04:37.005Z,7
2017-11-06T01:05:35.795Z,7
2017-11-06T01:06:34.814Z,7
2017-11-06T01:07:34.106Z,7
2017-11-06T01:08:33.116Z,7
2017-11-06T01:09:32.133Z,7
2017-11-06T01:10:31.286Z,7
2017-11-06T01:12:29.590Z,7
2017-11-06T01:13:28.368Z,7
2017-11-06T01:14:27.647Z,6.9
2017-11-06T01:15:26.657Z,6.9
2017-11-06T01:16:25.833Z,6.9
2017-11-06T01:17:24.824Z,6.9
2017-11-06T01:18:24.103Z,6.9
2017-11-06T01:19:23.528Z,6.9
2017-11-06T01:20:22.206Z,6.9
2017-11-06T01:22:20.504Z,6.9
2017-11-06T01:23:19.150Z,6.9
2017-11-06T01:24:18.315Z,6.9
2017-11-06T01:25:17.329Z,6.9
2017-11-06T01:26:16.747Z,6.9
2017-11-06T01:27:15.900Z,6.9
2017-11-06T01:28:15.048Z,6.9
2017-11-06T01:29:13.559Z,6.9
2017-11-06T01:30:12.442Z,6.9
2017-11-06T01:33:10.232Z,6.9
2017-11-06T01:34:09.509Z,6.9
2017-11-06T01:35:08.660Z,6.9
2017-11-06T01:36:07.575Z,6.9
2017-11-06T01:37:06.591Z,6.9
2017-11-06T01:38:05.606Z,6.9
2017-11-06T01:39:04.642Z,6.9
2017-11-06T01:40:03.666Z,6.9
2017-11-06T01:42:02.071Z,6.8
2017-11-06T01:43:00.959Z,6.8
2017-11-06T01:44:00.639Z,6.8
2017-11-06T01:44:59.033Z,6.8
2017-11-06T01:45:58.182Z,6.8
2017-11-06T01:46:56.925Z,6.8
2017-11-06T01:47:56.709Z,6.8
2017-11-06T01:48:55.215Z,6.8
2017-11-06T01:49:54.861Z,6.8
2017-11-06T01:52:51.775Z,6.8
2017-11-06T01:53:50.920Z,6.8
2017-11-06T01:54:49.940Z,6.8
2017-11-06T01:55:49.082Z,6.8
2017-11-06T01:56:48.239Z,6.9
2017-11-06T01:57:47.537Z,6.8
2017-11-06T01:58:46.182Z,6.8
2017-11-06T01:59:45.204Z,6.8
2017-11-06T02:01:43.597Z,6.8
2017-11-06T02:02:42.923Z,6.8
2017-11-06T02:03:41.675Z,6.8
2017-11-06T02:04:41.218Z,6.8
2017-11-06T02:05:39.920Z,6.7
2017-11-06T02:06:38.935Z,6.8
2017-11-06T02:07:37.685Z,6.8
2017-11-06T02:08:37.199Z,6.8
2017-11-06T02:09:36.079Z,6.8
2017-11-06T02:11:33.967Z,6.8
2017-11-06T02:12:33.614Z,6.8
2017-11-06T02:13:32.119Z,6.7
2017-11-06T02:14:31.644Z,6.8
2017-11-06T02:15:30.920Z,6.8
2017-11-06T02:16:29.801Z,6.8
2017-11-06T02:17:29.080Z,6.8
2017-11-06T02:18:27.596Z,6.8
2017-11-06T02:19:26.754Z,6.8
2017-11-06T02:21:25.147Z,6.7
2017-11-06T02:22:24.292Z,6.8
2017-11-06T02:23:23.186Z,6.7
2017-11-06T02:24:22.201Z,6.8
2017-11-06T02:25:21.351Z,6.8
2017-11-06T02:25:51.957Z,6.8
2017-11-06T02:29:17.427Z,6.7
2017-11-06T02:30:16.607Z,6.7
2017-11-06T02:31:16.265Z,6.7
2017-11-06T02:32:15.044Z,6.7
2017-11-06T02:33:14.463Z,6.7
2017-11-06T02:34:13.229Z,6.7
2017-11-06T02:35:12.112Z,6.7
2017-11-06T02:35:42.813Z,6.7
2017-11-06T02:36:13.276Z,6.7
2017-11-06T02:36:43.872Z,6.7
2017-11-06T02:38:09.721Z,6.7
2017-11-06T02:39:08.497Z,6.7
2017-11-06T02:40:07.523Z,6.7
2017-11-06T02:41:06.667Z,6.7
2017-11-06T02:42:05.955Z,6.7
2017-11-06T02:43:05.106Z,6.7
2017-11-06T02:44:04.126Z,6.7
2017-11-06T02:45:03.032Z,6.7
2017-11-06T02:46:02.197Z,6.7
2017-11-06T02:47:01.216Z,6.7
2017-11-06T02:48:00.494Z,6.7
2017-11-06T02:48:59.519Z,6.7
2017-11-06T02:49:58.677Z,6.7
2017-11-06T02:50:57.558Z,6.7
2017-11-06T02:51:56.705Z,6.7
2017-11-06T02:52:55.858Z,6.7
2017-11-06T02:53:54.872Z,6.7
2017-11-06T02:54:53.910Z,6.7
2017-11-06T02:55:53.087Z,6.7
2017-11-06T02:56:52.252Z,6.7
2017-11-06T02:57:51.269Z,6.7
2017-11-06T02:58:50.426Z,6.7
2017-11-06T02:59:48.947Z,6.7
2017-11-06T03:00:19.412Z,6.7
2017-11-06T03:00:50.134Z,6.7
2017-11-06T03:01:47.553Z,6.7
2017-11-06T03:02:46.200Z,6.7
2017-11-06T03:03:45.852Z,6.7
2017-11-06T03:04:44.751Z,6.7
2017-11-06T03:05:43.762Z,6.7
2017-11-06T03:06:14.089Z,6.7
2017-11-06T03:07:41.526Z,6.7
2017-11-06T03:08:40.945Z,6.7
2017-11-06T03:09:39.985Z,6.7
2017-11-06T03:10:38.998Z,6.7
2017-11-06T03:11:38.009Z,6.7
2017-11-06T03:12:37.159Z,6.7
2017-11-06T03:13:36.455Z,6.7
2017-11-06T03:14:34.966Z,6.6
2017-11-06T03:15:34.885Z,6.6
2017-11-06T03:16:04.732Z,6.6
2017-11-06T03:16:35.231Z,6.6
2017-11-06T03:17:05.944Z,6.6
2017-11-06T03:17:36.045Z,6.6
2017-11-06T03:18:06.511Z,6.6
2017-11-06T03:18:36.994Z,6.6
2017-11-06T03:19:07.589Z,6.6
2017-11-06T03:19:38.184Z,6.6
2017-11-06T03:20:08.779Z,6.6
2017-11-06T03:21:29.202Z,6.6
2017-11-06T03:22:27.839Z,6.6
2017-11-06T03:23:26.724Z,6.6
2017-11-06T03:24:26.007Z,6.6
2017-11-06T03:25:25.429Z,6.6
2017-11-06T03:26:24.434Z,6.6
2017-11-06T03:27:23.450Z,6.6
2017-11-06T03:28:22.328Z,6.6
2017-11-06T03:29:21.608Z,6.5
2017-11-06T03:30:20.617Z,6.6
2017-11-06T03:31:19.763Z,6.5
2017-11-06T03:32:18.811Z,6.5
2017-11-06T03:33:17.949Z,6.5
2017-11-06T03:34:17.085Z,6.5
2017-11-06T03:35:16.101Z,6.5
2017-11-06T03:36:15.367Z,6.5
2017-11-06T03:37:14.269Z,6.5
2017-11-06T03:38:13.179Z,6.6
2017-11-06T03:39:12.450Z,6.6
2017-11-06T03:40:10.945Z,6.6
2017-11-06T03:41:10.457Z,6.5
2017-11-06T03:42:09.589Z,6.6
2017-11-06T03:43:08.730Z,6.6
2017-11-06T03:44:07.228Z,6.6
2017-11-06T03:45:06.736Z,6.5
2017-11-06T03:46:06.163Z,6.5
2017-11-06T03:47:04.929Z,6.5
2017-11-06T03:49:02.944Z,6.5
2017-11-06T03:50:02.360Z,6.5
2017-11-06T03:51:01.504Z,6.5
2017-11-06T03:52:00.283Z,6.5
2017-11-06T03:52:59.553Z,6.5
2017-11-06T03:53:58.056Z,6.5
2017-11-06T03:54:57.203Z,6.5
2017-11-06T03:55:56.598Z,6.5
2017-11-06T03:56:55.608Z,6.5
2017-11-06T03:57:54.744Z,6.5
2017-11-06T03:58:25.066Z,6.5
2017-11-06T03:58:55.250Z,6.5
2017-11-06T03:59:26.205Z,6.5
2017-11-06T03:59:56.653Z,6.5
2017-11-06T04:00:51.493Z,6.4
2017-11-06T04:01:50.862Z,6.5
2017-11-06T04:02:50.137Z,6.4
2017-11-06T04:03:49.404Z,6.5
2017-11-06T04:04:48.543Z,6.5
2017-11-06T04:05:47.046Z,6.5
2017-11-06T04:07:45.563Z,6.5
2017-11-06T04:09:43.743Z,6.5
2017-11-06T04:10:42.750Z,6.5
2017-11-06T04:11:41.620Z,6.4
2017-11-06T04:12:40.488Z,6.4
2017-11-06T04:13:40.139Z,6.4
2017-11-06T04:14:38.907Z,6.4
2017-11-06T04:15:37.908Z,6.5
2017-11-06T04:16:37.067Z,6.5
2017-11-06T04:17:36.204Z,6.5
2017-11-06T04:18:35.482Z,6.5
2017-11-06T04:19:34.634Z,6.4
2017-11-06T04:20:33.286Z,6.5
2017-11-06T04:21:32.420Z,6.5
2017-11-06T04:22:31.684Z,6.5
2017-11-06T04:23:30.982Z,6.5
2017-11-06T04:24:29.725Z,6.5
2017-11-06T04:25:28.730Z,6.5
2017-11-06T04:26:27.737Z,6.5
2017-11-06T04:27:27.021Z,6.5
2017-11-06T04:28:26.033Z,6.5
2017-11-06T04:29:25.292Z,6.4
2017-11-06T04:30:24.301Z,6.4
2017-11-06T04:31:23.303Z,6.4
2017-11-06T04:32:22.319Z,6.4
2017-11-06T04:33:21.589Z,6.4
2017-11-06T04:34:20.882Z,6.4
2017-11-06T04:35:19.386Z,6.4
2017-11-06T04:37:17.408Z,6.4
2017-11-06T04:38:16.681Z,6.4
2017-11-06T04:39:15.816Z,6.4
2017-11-06T04:40:14.957Z,6.4
2017-11-06T04:41:14.230Z,6.4
2017-11-06T04:42:12.733Z,6.4
2017-11-06T04:43:11.743Z,6.4
2017-11-06T04:44:11.380Z,6.4
2017-11-06T04:45:09.749Z,6.4
2017-11-06T04:46:09.387Z,6.4
2017-11-06T04:48:07.405Z,6.4
2017-11-06T04:49:06.674Z,6.4
2017-11-06T04:50:05.816Z,6.4
2017-11-06T04:51:04.449Z,6.4
2017-11-06T04:52:04.095Z,6.4
2017-11-06T04:53:02.856Z,6.4
2017-11-06T04:54:01.864Z,6.4
2017-11-06T04:55:01.288Z,6.4
2017-11-06T04:55:59.925Z,6.4
2017-11-06T04:56:59.073Z,6.4
2017-11-06T04:57:58.213Z,6.4
2017-11-06T04:58:57.216Z,6.4
2017-11-06T04:59:56.484Z,6.4
2017-11-06T05:00:55.380Z,6.4
2017-11-06T05:01:54.514Z,6.4
2017-11-06T05:02:53.659Z,6.3
2017-11-06T05:03:52.943Z,6.4
2017-11-06T05:04:51.719Z,6.4
2017-11-06T05:05:50.854Z,6.3
2017-11-06T05:06:49.999Z,6.4
2017-11-06T05:07:48.538Z,6.4
2017-11-06T05:08:48.012Z,6.4
2017-11-06T05:10:45.772Z,6.4
2017-11-06T05:11:45.700Z,6.4
2017-11-06T05:12:44.322Z,6.4
2017-11-06T05:13:43.329Z,6.4
2017-11-06T05:14:42.732Z,6.4
2017-11-06T05:15:12.954Z,6.4
2017-11-06T05:15:43.171Z,6.4
2017-11-06T05:16:40.794Z,6.4
2017-11-06T05:18:38.808Z,6.4
2017-11-06T05:19:38.074Z,6.3
2017-11-06T05:20:36.444Z,6.3
2017-11-06T05:21:36.224Z,6.4
2017-11-06T05:22:34.725Z,6.4
2017-11-06T05:23:34.368Z,6.4
2017-11-06T05:24:32.870Z,6.4
2017-11-06T05:25:32.652Z,6.4
2017-11-06T05:26:31.420Z,6.3
2017-11-06T05:27:30.296Z,6.3
2017-11-06T05:28:29.436Z,6.3
2017-11-06T05:29:28.842Z,6.3
2017-11-06T05:30:27.474Z,6.3
2017-11-06T05:31:26.626Z,6.3
2017-11-06T05:32:25.898Z,6.3
2017-11-06T05:33:25.055Z,6.3
2017-11-06T05:33:55.244Z,6.3
2017-11-06T05:36:22.215Z,6.3
2017-11-06T05:38:20.391Z,6.3
2017-11-06T05:39:19.768Z,6.3
2017-11-06T05:40:18.673Z,6.3
2017-11-06T05:41:17.580Z,6.3
2017-11-06T05:42:16.492Z,6.3
2017-11-06T05:43:15.762Z,6.3
2017-11-06T05:44:14.900Z,6.3
2017-11-06T05:45:13.808Z,6.3
2017-11-06T05:46:12.951Z,6.3
2017-11-06T05:48:11.103Z,6.2
2017-11-06T05:49:10.109Z,6.2
2017-11-06T05:50:08.887Z,6.2
2017-11-06T05:51:07.891Z,6.2
2017-11-06T05:52:06.756Z,6.2
2017-11-06T05:53:06.262Z,6.2
2017-11-06T05:54:05.268Z,6.2
2017-11-06T05:55:04.262Z,6.2
2017-11-06T05:58:01.809Z,6.2
2017-11-06T05:59:00.811Z,6.2
2017-11-06T05:59:59.815Z,6.2
2017-11-06T06:00:59.222Z,6.2
2017-11-06T06:01:57.992Z,6.2
2017-11-06T06:02:56.894Z,6.2
2017-11-06T06:03:56.040Z,6.2
2017-11-06T06:05:53.926Z,6.1
2017-11-06T06:06:52.935Z,6.1
2017-11-06T06:07:52.345Z,6.1
2017-11-06T06:08:51.613Z,6.1
2017-11-06T06:09:50.250Z,6.1
2017-11-06T06:10:49.252Z,6.1
2017-11-06T06:11:48.127Z,6.1
2017-11-06T06:12:47.907Z,6.1
2017-11-06T06:13:46.673Z,6.1
2017-11-06T06:14:45.941Z,6.1
2017-11-06T06:15:44.827Z,6.1
2017-11-06T06:17:42.978Z,6.1
2017-11-06T06:18:42.251Z,6.1
2017-11-06T06:19:40.623Z,6.1
2017-11-06T06:21:38.884Z,6.1
2017-11-06T06:22:37.763Z,6.1
2017-11-06T06:23:37.667Z,6
2017-11-06T06:24:36.185Z,6
2017-11-06T06:25:35.456Z,6
2017-11-06T06:26:34.726Z,6
2017-11-06T06:27:33.727Z,6
2017-11-06T06:28:32.858Z,6
2017-11-06T06:29:31.995Z,6
2017-11-06T06:30:30.639Z,6
2017-11-06T06:31:29.660Z,6
2017-11-06T06:32:29.296Z,6
2017-11-06T06:33:28.210Z,6
2017-11-06T06:34:27.254Z,6
2017-11-06T06:35:25.757Z,6
2017-11-06T06:36:25.397Z,6
2017-11-06T06:37:24.410Z,6
2017-11-06T06:39:22.690Z,6
2017-11-06T06:40:21.692Z,6
2017-11-06T06:41:20.466Z,5.9
2017-11-06T06:42:19.341Z,5.9
2017-11-06T06:43:18.721Z,5.9
2017-11-06T06:44:17.587Z,5.9
2017-11-06T06:45:16.856Z,5.9
2017-11-06T06:46:16.002Z,5.8
2017-11-06T06:47:14.738Z,5.9
2017-11-06T06:48:14.384Z,5.9
2017-11-06T06:49:12.879Z,5.8
2017-11-06T06:50:11.879Z,5.9
2017-11-06T06:51:11.666Z,5.8
2017-11-06T06:52:10.425Z,5.9
2017-11-06T06:54:08.477Z,5.9
2017-11-06T06:55:07.483Z,5.9
2017-11-06T06:56:06.635Z,5.8
2017-11-06T06:57:05.784Z,5.8
2017-11-06T06:58:04.557Z,5.8
2017-11-06T06:59:03.696Z,5.8
2017-11-06T07:00:03.121Z,5.8
2017-11-06T07:01:01.633Z,5.8
2017-11-06T07:02:01.015Z,5.8
2017-11-06T07:03:59.168Z,5.8
2017-11-06T07:04:58.440Z,5.8
2017-11-06T07:05:57.075Z,5.9
2017-11-06T07:06:56.114Z,5.9
2017-11-06T07:07:54.994Z,5.8
2017-11-06T07:08:54.633Z,5.9
2017-11-06T07:09:53.404Z,5.9
2017-11-06T07:10:52.276Z,5.9
2017-11-06T07:11:51.408Z,5.9
2017-11-06T07:12:50.746Z,5.9
2017-11-06T07:13:49.926Z,5.9
2017-11-06T07:14:48.797Z,5.9
2017-11-06T07:15:47.928Z,5.9
2017-11-06T07:16:46.932Z,5.9
2017-11-06T07:17:46.203Z,6
2017-11-06T07:18:45.210Z,6
2017-11-06T07:19:44.349Z,6
2017-11-06T07:20:43.486Z,6
2017-11-06T07:21:42.120Z,6
2017-11-06T07:22:41.123Z,6
2017-11-06T07:23:40.092Z,6
2017-11-06T07:24:39.608Z,6
2017-11-06T07:25:38.738Z,6
2017-11-06T07:26:37.611Z,6
2017-11-06T07:27:36.487Z,6
2017-11-06T07:28:35.895Z,6
2017-11-06T07:29:34.661Z,6.1
2017-11-06T07:30:33.661Z,6.1
2017-11-06T07:31:32.537Z,6.1
2017-11-06T07:32:32.180Z,6.1
2017-11-06T07:33:31.051Z,6.1
2017-11-06T07:34:30.326Z,6.1
2017-11-06T07:36:28.346Z,6
2017-11-06T07:37:27.479Z,6
2017-11-06T07:38:26.491Z,6
2017-11-06T07:39:25.494Z,6.1
2017-11-06T07:40:24.363Z,6.1
2017-11-06T07:41:23.373Z,6.1
2017-11-06T07:42:22.928Z,6
2017-11-06T07:43:21.433Z,6.1
2017-11-06T07:44:20.570Z,6.1
2017-11-06T07:45:20.110Z,6.1
2017-11-06T07:45:49.796Z,6.1
2017-11-06T07:47:17.860Z,6.1
2017-11-06T07:48:16.868Z,6.1
2017-11-06T07:49:15.877Z,6.1
2017-11-06T07:50:15.014Z,6.1
2017-11-06T07:51:14.303Z,6.1
2017-11-06T07:52:13.583Z,6.1
2017-11-06T07:53:12.222Z,6.1
2017-11-06T07:54:11.355Z,6.1
2017-11-06T07:55:10.489Z,6.1
2017-11-06T07:56:09.361Z,6.1
2017-11-06T07:57:08.233Z,6.1
2017-11-06T07:58:07.603Z,6.1
2017-11-06T07:59:06.620Z,6.1
2017-11-06T08:00:05.634Z,6.1
2017-11-06T08:01:04.787Z,6.1
2017-11-06T08:02:03.659Z,6.2
2017-11-06T08:03:02.904Z,6.2
2017-11-06T08:04:01.645Z,6.2
2017-11-06T08:05:01.294Z,6.2
2017-11-06T08:06:00.299Z,6.2
2017-11-06T08:06:59.574Z,6.2
2017-11-06T08:08:57.461Z,6.3
2017-11-06T08:09:56.463Z,6.2
2017-11-06T08:10:55.473Z,6.2
2017-11-06T08:11:54.610Z,6.3
2017-11-06T08:12:53.481Z,6.3
2017-11-06T08:13:52.986Z,6.3
2017-11-06T08:14:52.001Z,6.3
2017-11-06T08:15:51.020Z,6.3
2017-11-06T08:16:49.893Z,6.3
2017-11-06T08:17:49.031Z,6.3
2017-11-06T08:18:48.167Z,6.4
2017-11-06T08:19:47.176Z,6.4
2017-11-06T08:20:46.181Z,6.4
2017-11-06T08:21:45.317Z,6.4
2017-11-06T08:22:44.334Z,6.4
2017-11-06T08:23:43.343Z,6.4
2017-11-06T08:24:42.492Z,6.4
2017-11-06T08:25:41.755Z,6.4
2017-11-06T08:26:41.054Z,6.4
2017-11-06T08:27:39.825Z,6.4
2017-11-06T08:28:38.972Z,6.5
2017-11-06T08:29:37.974Z,6.5
2017-11-06T08:30:36.979Z,6.5
2017-11-06T08:31:36.379Z,6.5
2017-11-06T08:32:34.910Z,6.5
2017-11-06T08:33:34.053Z,6.5
2017-11-06T08:35:32.200Z,6.5
2017-11-06T08:36:31.204Z,6.5
2017-11-06T08:37:30.209Z,6.5
2017-11-06T08:38:29.344Z,6.6
2017-11-06T08:39:28.343Z,6.6
2017-11-06T08:40:27.741Z,6.6
2017-11-06T08:41:26.740Z,6.6
2017-11-06T08:42:25.744Z,6.6
2017-11-06T08:43:25.009Z,6.6
2017-11-06T08:44:23.650Z,6.6
2017-11-06T08:45:22.798Z,6.6
2017-11-06T08:46:21.814Z,6.7
2017-11-06T08:47:21.455Z,6.7
2017-11-06T08:48:20.086Z,6.7
2017-11-06T08:50:18.769Z,6.7
2017-11-06T08:51:17.400Z,6.6
2017-11-06T08:52:16.807Z,6.7
2017-11-06T08:53:15.586Z,6.7
2017-11-06T08:54:14.595Z,6.7
2017-11-06T08:55:13.595Z,6.7
2017-11-06T08:56:12.463Z,6.8
2017-11-06T08:57:11.976Z,6.8
2017-11-06T08:58:11.116Z,6.8
2017-11-06T08:59:09.755Z,6.7
2017-11-06T09:00:09.282Z,6.7
2017-11-06T09:01:08.686Z,6.7
2017-11-06T09:02:07.467Z,6.7
2017-11-06T09:03:06.477Z,6.7
2017-11-06T09:04:05.257Z,6.7
2017-11-06T09:05:04.398Z,6.8
2017-11-06T09:06:03.408Z,6.9
2017-11-06T09:07:02.415Z,6.9
2017-11-06T09:08:01.577Z,6.8
2017-11-06T09:09:01.372Z,6.8
2017-11-06T09:09:59.648Z,6.9
2017-11-06T09:10:58.795Z,6.9
2017-11-06T09:11:57.929Z,6.9
2017-11-06T09:12:56.808Z,6.9
2017-11-06T09:13:55.808Z,7
2017-11-06T09:14:55.444Z,7
2017-11-06T09:15:53.948Z,6.9
2017-11-06T09:16:53.086Z,7
2017-11-06T09:17:52.639Z,7
2017-11-06T09:18:51.545Z,7
2017-11-06T09:19:21.501Z,7
2017-11-06T09:20:49.832Z,7
2017-11-06T09:21:48.471Z,7
2017-11-06T09:22:47.742Z,7.1
2017-11-06T09:23:46.753Z,7.1
2017-11-06T09:24:46.034Z,7
2017-11-06T09:25:44.905Z,7
2017-11-06T09:26:43.772Z,7.1
2017-11-06T09:28:42.292Z,7.1
2017-11-06T09:29:41.304Z,7.1
2017-11-06T09:30:40.446Z,7.1
2017-11-06T09:31:39.850Z,7.1
2017-11-06T09:32:38.347Z,7.1
2017-11-06T09:33:37.352Z,7.1
2017-11-06T09:34:37.126Z,7.1
2017-11-06T09:35:36.039Z,7.1
2017-11-06T09:36:34.813Z,7.1
2017-11-06T09:37:33.681Z,7.1
2017-11-06T09:38:32.956Z,7.1
2017-11-06T09:39:31.834Z,7.1
2017-11-06T09:40:31.205Z,7.2
2017-11-06T09:41:30.343Z,7.2
2017-11-06T09:42:29.478Z,7.3
2017-11-06T09:42:59.930Z,7.3
2017-11-06T09:43:30.780Z,7.3
2017-11-06T09:44:27.402Z,7.3
2017-11-06T09:45:26.542Z,7.3
2017-11-06T09:46:25.679Z,7.3
2017-11-06T09:48:23.964Z,7.4
2017-11-06T09:49:22.603Z,7.4
2017-11-06T09:51:20.993Z,7.4
2017-11-06T09:52:20.157Z,7.4
2017-11-06T09:53:19.297Z,7.4
2017-11-06T09:54:18.438Z,7.4
2017-11-06T09:55:17.205Z,7.4
2017-11-06T09:56:16.347Z,7.4
2017-11-06T09:57:15.372Z,7.4
2017-11-06T09:58:14.248Z,7.4
2017-11-06T09:59:13.629Z,7.5
2017-11-06T09:59:44.211Z,7.5
2017-11-06T10:00:14.667Z,7.4
2017-11-06T10:00:44.855Z,7.4
2017-11-06T10:01:15.434Z,7.5
2017-11-06T10:01:46.060Z,7.5
2017-11-06T10:03:10.000Z,7.5
2017-11-06T10:04:09.138Z,7.5
2017-11-06T10:05:08.009Z,7.5
2017-11-06T10:06:07.592Z,7.5
2017-11-06T10:07:06.357Z,7.5
2017-11-06T10:08:05.232Z,7.6
2017-11-06T10:09:04.513Z,7.6
2017-11-06T10:10:03.384Z,7.6
2017-11-06T10:11:02.522Z,7.6
2017-11-06T10:12:01.664Z,7.7
2017-11-06T10:13:00.665Z,7.7
2017-11-06T10:14:00.084Z,7.8
2017-11-06T10:14:59.209Z,7.8
2017-11-06T10:15:58.111Z,7.8
2017-11-06T10:16:57.388Z,7.8
2017-11-06T10:17:56.535Z,7.9
2017-11-06T10:18:55.577Z,7.8
2017-11-06T10:19:54.862Z,7.8
2017-11-06T10:20:53.356Z,7.8
2017-11-06T10:21:52.628Z,7.8
2017-11-06T10:22:51.767Z,7.8
2017-11-06T10:23:50.916Z,7.8
2017-11-06T10:25:49.064Z,7.8
2017-11-06T10:26:48.075Z,7.8
2017-11-06T10:27:47.077Z,7.7
2017-11-06T10:28:46.362Z,7.8
2017-11-06T10:29:45.630Z,7.8
2017-11-06T10:31:43.642Z,7.8
2017-11-06T10:32:42.915Z,7.8
2017-11-06T10:35:40.111Z,7.8
2017-11-06T10:37:37.992Z,7.8
2017-11-06T10:38:36.860Z,7.9
2017-11-06T10:40:35.117Z,7.8
2017-11-06T10:41:34.260Z,7.8
2017-11-06T10:42:04.705Z,7.8
2017-11-06T10:42:35.156Z,7.8
2017-11-06T10:43:32.914Z,7.9
2017-11-06T10:44:31.959Z,7.9
2017-11-06T10:45:31.018Z,8
2017-11-06T10:46:30.031Z,8
2017-11-06T10:47:28.665Z,8
2017-11-06T10:48:28.443Z,8.1
2017-11-06T10:49:26.952Z,8.1
2017-11-06T10:50:25.957Z,8.1
2017-11-06T10:51:25.085Z,8.1
2017-11-06T10:52:24.217Z,8.2
2017-11-06T10:53:23.624Z,8.2
2017-11-06T10:54:22.628Z,8.2
2017-11-06T10:56:20.803Z,8.1
2017-11-06T10:57:20.076Z,8.1
2017-11-06T10:58:18.838Z,8.1
2017-11-06T10:59:17.875Z,8.1
2017-11-06T11:00:17.016Z,8.2
2017-11-06T11:01:16.027Z,8.2
2017-11-06T11:02:15.806Z,8.1
2017-11-06T11:03:14.444Z,8.2
2017-11-06T11:04:13.719Z,8.2
2017-11-06T11:05:12.859Z,8.2
2017-11-06T11:06:11.898Z,8.2
2017-11-06T11:07:10.402Z,8.3
2017-11-06T11:08:10.173Z,8.3
2017-11-06T11:09:09.444Z,8.3
2017-11-06T11:10:08.210Z,8.3
2017-11-06T11:11:07.369Z,8.3
2017-11-06T11:12:06.000Z,8.3
2017-11-06T11:13:05.648Z,8.3
2017-11-06T11:14:04.653Z,8.3
2017-11-06T11:16:02.669Z,8.4
2017-11-06T11:17:02.205Z,8.3
2017-11-06T11:17:32.030Z,8.3
2017-11-06T11:18:02.492Z,8.3
2017-11-06T11:18:59.864Z,8.3
2017-11-06T11:19:58.996Z,8.4
2017-11-06T11:20:58.002Z,8.4
2017-11-06T11:21:57.393Z,8.5
2017-11-06T11:23:55.417Z,8.5
2017-11-06T11:24:54.688Z,8.6
2017-11-06T11:25:53.564Z,8.6
2017-11-06T11:26:52.698Z,8.6
2017-11-06T11:27:51.826Z,8.6
2017-11-06T11:28:50.959Z,8.6
2017-11-06T11:29:49.963Z,8.7
2017-11-06T11:30:49.104Z,8.7
2017-11-06T11:31:48.506Z,8.7
2017-11-06T11:32:46.999Z,8.7
2017-11-06T11:33:46.499Z,8.7
2017-11-06T11:34:45.511Z,8.7
2017-11-06T11:35:44.514Z,8.7
2017-11-06T11:36:43.508Z,8.7
2017-11-06T11:37:42.653Z,8.8
2017-11-06T11:38:42.295Z,8.8
2017-11-06T11:39:41.041Z,8.8
2017-11-06T11:40:40.178Z,8.8
2017-11-06T11:42:38.068Z,8.8
2017-11-06T11:43:37.576Z,8.9
2017-11-06T11:44:36.580Z,8.9
2017-11-06T11:45:35.590Z,8.9
2017-11-06T11:46:34.868Z,8.9
2017-11-06T11:47:34.003Z,9
2017-11-06T11:48:32.756Z,9.1
2017-11-06T11:49:32.022Z,9.1
2017-11-06T11:50:31.161Z,9
2017-11-06T11:51:30.160Z,8.9
2017-11-06T11:53:28.693Z,8.9
2017-11-06T11:55:26.715Z,8.9
2017-11-06T11:56:25.847Z,8.8
2017-11-06T11:58:24.501Z,8.8
2017-11-06T11:59:23.128Z,8.8
2017-11-06T12:00:22.000Z,8.8
2017-11-06T12:01:21.511Z,8.8
2017-11-06T12:02:20.777Z,8.8
2017-11-06T12:03:19.524Z,8.9
2017-11-06T12:04:18.798Z,8.9
2017-11-06T12:05:17.941Z,8.8
2017-11-06T12:06:17.358Z,8.8
2017-11-06T12:07:16.127Z,8.8
2017-11-06T12:08:15.527Z,8.9
2017-11-06T12:09:14.525Z,8.9
2017-11-06T12:10:13.659Z,8.9
2017-11-06T12:11:12.804Z,9
2017-11-06T12:12:11.836Z,9.1
2017-11-06T12:13:11.140Z,9.1
2017-11-06T12:14:09.798Z,9.1
2017-11-06T12:15:09.089Z,9.1
2017-11-06T12:16:08.377Z,9.2
2017-11-06T12:18:06.409Z,9.4
2017-11-06T12:19:05.683Z,9.4
2017-11-06T12:20:04.845Z,9.4
2017-11-06T12:21:03.981Z,9.4
2017-11-06T12:23:02.272Z,9.4
2017-11-06T12:24:01.047Z,9.3
2017-11-06T12:25:00.193Z,9.3
2017-11-06T12:25:59.197Z,9.3
2017-11-06T12:27:57.493Z,9.1
2017-11-06T12:28:56.765Z,9.1
2017-11-06T12:29:55.503Z,9.2
2017-11-06T12:30:54.529Z,9.4
2017-11-06T12:31:54.167Z,9.3
2017-11-06T12:32:53.436Z,9.4
2017-11-06T12:33:51.934Z,9.4
2017-11-06T12:34:51.068Z,9.4
2017-11-06T12:35:50.729Z,9.4
2017-11-06T12:36:49.906Z,9.4
2017-11-06T12:37:48.674Z,9.3
2017-11-06T12:38:47.985Z,9.3
2017-11-06T12:39:46.864Z,9.4
2017-11-06T12:40:45.738Z,9.4
2017-11-06T12:41:45.507Z,9.3
2017-11-06T12:42:44.016Z,9.3
2017-11-06T12:44:42.677Z,9.4
2017-11-06T12:45:41.557Z,9.4
2017-11-06T12:46:40.824Z,9.4
2017-11-06T12:47:39.957Z,9.4
2017-11-06T12:48:39.228Z,9.4
2017-11-06T12:49:37.867Z,9.4
2017-11-06T12:50:37.278Z,9.4
2017-11-06T12:51:07.473Z,9.4
2017-11-06T12:51:38.170Z,9.5
2017-11-06T12:52:35.426Z,9.4
2017-11-06T12:53:34.567Z,9.5
2017-11-06T12:54:33.966Z,9.5
2017-11-06T12:55:32.976Z,9.5
2017-11-06T12:56:32.116Z,9.5
2017-11-06T12:57:30.747Z,9.6
2017-11-06T12:59:29.392Z,9.6
2017-11-06T13:01:27.542Z,9.6
2017-11-06T13:02:26.684Z,9.7
2017-11-06T13:03:25.967Z,9.7
2017-11-06T13:04:24.603Z,9.7
2017-11-06T13:05:23.748Z,9.7
2017-11-06T13:06:22.751Z,9.7
2017-11-06T13:07:22.259Z,9.7
2017-11-06T13:08:21.137Z,9.7
2017-11-06T13:11:18.689Z,9.8
2017-11-06T13:12:17.696Z,9.8
2017-11-06T13:13:16.972Z,9.8
2017-11-06T13:14:16.114Z,9.7
2017-11-06T13:15:15.116Z,9.7
2017-11-06T13:17:13.637Z,9.5
2017-11-06T13:18:12.780Z,9.5
2017-11-06T13:19:11.926Z,9.4
2017-11-06T13:21:09.950Z,9.5
2017-11-06T13:22:08.958Z,9.6
2017-11-06T13:23:07.978Z,9.6
2017-11-06T13:24:06.988Z,9.6
2017-11-06T13:25:06.493Z,9.7
2017-11-06T13:26:05.629Z,9.7
2017-11-06T13:28:03.818Z,9.7
2017-11-06T13:29:02.966Z,9.7
2017-11-06T13:30:02.243Z,9.7
2017-11-06T13:31:01.521Z,9.7
2017-11-06T13:32:00.293Z,9.8
2017-11-06T13:32:59.315Z,9.9
2017-11-06T13:33:58.946Z,10
2017-11-06T13:34:58.085Z,10
2017-11-06T13:35:57.080Z,10.1
2017-11-06T13:36:56.353Z,10.2
2017-11-06T13:37:55.350Z,10.3
2017-11-06T13:38:54.348Z,10.3
2017-11-06T13:39:53.352Z,10.4
2017-11-06T13:40:52.364Z,10.4
2017-11-06T13:41:51.640Z,10.5
2017-11-06T13:43:50.072Z,10.3
2017-11-06T13:44:49.492Z,10.2
2017-11-06T13:45:48.122Z,10
2017-11-06T13:46:47.258Z,10
2017-11-06T13:47:46.273Z,10
2017-11-06T13:48:45.415Z,10.1
2017-11-06T13:49:44.415Z,10.2
2017-11-06T13:50:43.792Z,10.2
2017-11-06T13:51:42.789Z,10.2
2017-11-06T13:52:42.165Z,10.2
2017-11-06T13:53:41.168Z,10.2
2017-11-06T13:54:40.171Z,10.1
2017-11-06T13:55:39.712Z,10.1
2017-11-06T13:57:37.338Z,9.8
2017-11-06T13:58:36.835Z,9.7
2017-11-06T13:59:35.984Z,9.7
2017-11-06T14:00:34.858Z,9.8
2017-11-06T14:01:34.365Z,9.8
2017-11-06T14:02:33.374Z,9.7
2017-11-06T14:03:32.379Z,9.7
2017-11-06T14:05:30.636Z,9.5
2017-11-06T14:06:29.778Z,9.5
2017-11-06T14:07:28.933Z,9.5
2017-11-06T14:08:28.423Z,9.5
2017-11-06T14:09:27.434Z,9.4
2017-11-06T14:10:26.443Z,9.4
2017-11-06T14:11:25.815Z,9.4
2017-11-06T14:12:24.819Z,9.3
2017-11-06T14:14:22.713Z,9.2
2017-11-06T14:15:22.227Z,9.2
2017-11-06T14:16:21.232Z,9.1
2017-11-06T14:17:20.240Z,9.1
2017-11-06T14:18:19.881Z,9.1
2017-11-06T14:19:18.659Z,9
2017-11-06T14:20:17.941Z,9.1
2017-11-06T14:21:17.078Z,9.1
2017-11-06T14:22:16.227Z,9.1
2017-11-06T14:23:15.361Z,9.1
2017-11-06T14:24:14.102Z,9.1
2017-11-06T14:25:13.376Z,9.1